sensor_id;sensor_type;location;lat;lon;timestamp;P1;durP1;ratioP1;P2;durP2;ratioP2
23578;SDS011;11967;50.852;4.400;2023-04-24T00:00:08;29.02;;;14.85;;
23578;SDS011;11967;50.852;4.400;2023-04-24T00:02:34;25.98;;;13.50;;
23578;SDS011;11967;50.852;4.400;2023-04-24T00:05:03;28.35;;;14.20;;
23578;SDS011;11967;50.852;4.400;2023-04-24T00:07:32;32.10;;;14.43;;
23578;SDS011;11967;50.852;4.400;2023-04-24T00:09:59;25.20;;;13.38;;
23578;SDS011;11967;50.852;4.400;2023-04-24T00:12:25;27.27;;;13.43;;
23578;SDS011;11967;50.852;4.400;2023-04-24T00:14:51;25.70;;;14.13;;
23578;SDS011;11967;50.852;4.400;2023-04-24T00:17:18;26.40;;;14.15;;
23578;SDS011;11967;50.852;4.400;2023-04-24T00:19:47;26.55;;;14.20;;
23578;SDS011;11967;50.852;4.400;2023-04-24T00:22:15;24.08;;;14.23;;
23578;SDS011;11967;50.852;4.400;2023-04-24T00:24:41;26.13;;;13.55;;
23578;SDS011;11967;50.852;4.400;2023-04-24T00:27:11;29.63;;;14.48;;
23578;SDS011;11967;50.852;4.400;2023-04-24T00:29:37;23.60;;;14.18;;
23578;SDS011;11967;50.852;4.400;2023-04-24T00:32:04;29.27;;;13.90;;
23578;SDS011;11967;50.852;4.400;2023-04-24T00:34:29;26.88;;;13.50;;
23578;SDS011;11967;50.852;4.400;2023-04-24T00:36:57;24.95;;;13.65;;
23578;SDS011;11967;50.852;4.400;2023-04-24T00:39:23;27.15;;;14.32;;
23578;SDS011;11967;50.852;4.400;2023-04-24T00:41:48;26.30;;;13.18;;
23578;SDS011;11967;50.852;4.400;2023-04-24T00:44:15;26.70;;;14.32;;
23578;SDS011;11967;50.852;4.400;2023-04-24T00:46:42;29.55;;;14.15;;
23578;SDS011;11967;50.852;4.400;2023-04-24T00:49:07;27.30;;;14.18;;
23578;SDS011;11967;50.852;4.400;2023-04-24T00:51:33;29.75;;;14.32;;
23578;SDS011;11967;50.852;4.400;2023-04-24T00:54:00;21.75;;;13.85;;
23578;SDS011;11967;50.852;4.400;2023-04-24T00:56:27;29.48;;;14.00;;
23578;SDS011;11967;50.852;4.400;2023-04-24T00:58:53;28.15;;;13.82;;
23578;SDS011;11967;50.852;4.400;2023-04-24T01:01:19;23.13;;;13.32;;
23578;SDS011;11967;50.852;4.400;2023-04-24T01:03:46;27.73;;;13.40;;
23578;SDS011;11967;50.852;4.400;2023-04-24T01:06:15;31.52;;;13.68;;
23578;SDS011;11967;50.852;4.400;2023-04-24T01:08:40;24.30;;;14.73;;
23578;SDS011;11967;50.852;4.400;2023-04-24T01:11:07;27.65;;;14.43;;
23578;SDS011;11967;50.852;4.400;2023-04-24T01:13:33;31.98;;;14.52;;
23578;SDS011;11967;50.852;4.400;2023-04-24T01:15:59;24.05;;;13.88;;
23578;SDS011;11967;50.852;4.400;2023-04-24T01:18:26;27.77;;;14.45;;
23578;SDS011;11967;50.852;4.400;2023-04-24T01:20:53;25.27;;;13.93;;
23578;SDS011;11967;50.852;4.400;2023-04-24T01:23:21;25.48;;;13.15;;
23578;SDS011;11967;50.852;4.400;2023-04-24T01:25:47;23.77;;;13.15;;
23578;SDS011;11967;50.852;4.400;2023-04-24T01:28:14;22.80;;;13.55;;
23578;SDS011;11967;50.852;4.400;2023-04-24T01:30:41;24.92;;;13.60;;
23578;SDS011;11967;50.852;4.400;2023-04-24T01:33:06;23.42;;;13.40;;
23578;SDS011;11967;50.852;4.400;2023-04-24T01:35:32;23.00;;;12.70;;
23578;SDS011;11967;50.852;4.400;2023-04-24T01:37:59;23.35;;;12.00;;
23578;SDS011;11967;50.852;4.400;2023-04-24T01:40:25;20.77;;;12.50;;
23578;SDS011;11967;50.852;4.400;2023-04-24T01:42:50;20.75;;;12.07;;
23578;SDS011;11967;50.852;4.400;2023-04-24T01:45:17;19.25;;;11.57;;
23578;SDS011;11967;50.852;4.400;2023-04-24T01:47:43;17.65;;;11.02;;
23578;SDS011;11967;50.852;4.400;2023-04-24T01:50:10;19.98;;;11.77;;
23578;SDS011;11967;50.852;4.400;2023-04-24T01:52:39;23.23;;;12.07;;
23578;SDS011;11967;50.852;4.400;2023-04-24T01:55:04;18.60;;;11.98;;
23578;SDS011;11967;50.852;4.400;2023-04-24T01:57:32;20.67;;;11.80;;
23578;SDS011;11967;50.852;4.400;2023-04-24T01:59:58;20.95;;;12.10;;
23578;SDS011;11967;50.852;4.400;2023-04-24T02:02:23;24.65;;;13.23;;
23578;SDS011;11967;50.852;4.400;2023-04-24T02:04:52;23.88;;;13.25;;
23578;SDS011;11967;50.852;4.400;2023-04-24T02:07:21;26.10;;;12.40;;
23578;SDS011;11967;50.852;4.400;2023-04-24T02:09:46;17.52;;;12.55;;
23578;SDS011;11967;50.852;4.400;2023-04-24T02:12:12;22.08;;;12.98;;
23578;SDS011;11967;50.852;4.400;2023-04-24T02:14:38;21.60;;;13.00;;
23578;SDS011;11967;50.852;4.400;2023-04-24T02:17:04;22.38;;;13.10;;
23578;SDS011;11967;50.852;4.400;2023-04-24T02:19:30;27.80;;;14.05;;
23578;SDS011;11967;50.852;4.400;2023-04-24T02:21:56;21.50;;;13.77;;
23578;SDS011;11967;50.852;4.400;2023-04-24T02:24:21;24.45;;;15.20;;
23578;SDS011;11967;50.852;4.400;2023-04-24T02:26:47;22.27;;;15.25;;
23578;SDS011;11967;50.852;4.400;2023-04-24T02:29:13;23.02;;;14.77;;
23578;SDS011;11967;50.852;4.400;2023-04-24T02:31:39;21.92;;;14.10;;
23578;SDS011;11967;50.852;4.400;2023-04-24T02:34:05;24.50;;;14.48;;
23578;SDS011;11967;50.852;4.400;2023-04-24T02:36:30;21.83;;;13.80;;
23578;SDS011;11967;50.852;4.400;2023-04-24T02:38:56;21.48;;;13.07;;
23578;SDS011;11967;50.852;4.400;2023-04-24T02:41:22;19.25;;;13.32;;
23578;SDS011;11967;50.852;4.400;2023-04-24T02:43:48;19.45;;;13.63;;
23578;SDS011;11967;50.852;4.400;2023-04-24T02:46:13;23.08;;;14.23;;
23578;SDS011;11967;50.852;4.400;2023-04-24T02:48:39;22.60;;;13.00;;
23578;SDS011;11967;50.852;4.400;2023-04-24T02:51:05;18.45;;;12.57;;
23578;SDS011;11967;50.852;4.400;2023-04-24T02:53:31;24.30;;;13.38;;
23578;SDS011;11967;50.852;4.400;2023-04-24T02:55:57;22.70;;;12.48;;
23578;SDS011;11967;50.852;4.400;2023-04-24T02:58:23;22.00;;;13.00;;
23578;SDS011;11967;50.852;4.400;2023-04-24T03:00:48;22.48;;;13.02;;
23578;SDS011;11967;50.852;4.400;2023-04-24T03:03:18;22.23;;;11.90;;
23578;SDS011;11967;50.852;4.400;2023-04-24T03:05:44;17.52;;;12.02;;
23578;SDS011;11967;50.852;4.400;2023-04-24T03:08:10;23.98;;;11.90;;
23578;SDS011;11967;50.852;4.400;2023-04-24T03:10:36;19.23;;;11.63;;
23578;SDS011;11967;50.852;4.400;2023-04-24T03:13:02;17.88;;;11.40;;
23578;SDS011;11967;50.852;4.400;2023-04-24T03:15:27;17.73;;;11.70;;
23578;SDS011;11967;50.852;4.400;2023-04-24T03:17:53;16.73;;;10.35;;
23578;SDS011;11967;50.852;4.400;2023-04-24T03:20:19;15.63;;;9.57;;
23578;SDS011;11967;50.852;4.400;2023-04-24T03:22:44;18.25;;;10.32;;
23578;SDS011;11967;50.852;4.400;2023-04-24T03:25:10;18.38;;;10.07;;
23578;SDS011;11967;50.852;4.400;2023-04-24T03:27:36;13.48;;;9.48;;
23578;SDS011;11967;50.852;4.400;2023-04-24T03:30:02;17.73;;;9.40;;
23578;SDS011;11967;50.852;4.400;2023-04-24T03:32:28;18.13;;;10.30;;
23578;SDS011;11967;50.852;4.400;2023-04-24T03:34:54;15.50;;;9.85;;
23578;SDS011;11967;50.852;4.400;2023-04-24T03:37:19;16.58;;;9.50;;
23578;SDS011;11967;50.852;4.400;2023-04-24T03:39:45;20.83;;;10.10;;
23578;SDS011;11967;50.852;4.400;2023-04-24T03:42:10;16.95;;;10.10;;
23578;SDS011;11967;50.852;4.400;2023-04-24T03:44:36;12.95;;;8.77;;
23578;SDS011;11967;50.852;4.400;2023-04-24T03:47:02;12.90;;;7.68;;
23578;SDS011;11967;50.852;4.400;2023-04-24T03:49:28;14.48;;;8.90;;
23578;SDS011;11967;50.852;4.400;2023-04-24T03:51:53;13.20;;;8.43;;
23578;SDS011;11967;50.852;4.400;2023-04-24T03:54:19;10.95;;;8.18;;
23578;SDS011;11967;50.852;4.400;2023-04-24T03:56:45;13.52;;;8.23;;
23578;SDS011;11967;50.852;4.400;2023-04-24T03:59:10;13.00;;;8.10;;
23578;SDS011;11967;50.852;4.400;2023-04-24T04:01:36;15.63;;;7.85;;
23578;SDS011;11967;50.852;4.400;2023-04-24T04:04:03;11.68;;;6.60;;
23578;SDS011;11967;50.852;4.400;2023-04-24T04:06:30;11.98;;;7.10;;
23578;SDS011;11967;50.852;4.400;2023-04-24T04:08:56;8.98;;;6.22;;
23578;SDS011;11967;50.852;4.400;2023-04-24T04:11:22;8.98;;;6.72;;
23578;SDS011;11967;50.852;4.400;2023-04-24T04:13:48;11.38;;;6.68;;
23578;SDS011;11967;50.852;4.400;2023-04-24T04:16:14;8.05;;;5.72;;
23578;SDS011;11967;50.852;4.400;2023-04-24T04:18:41;9.25;;;6.00;;
23578;SDS011;11967;50.852;4.400;2023-04-24T04:21:07;10.85;;;6.28;;
23578;SDS011;11967;50.852;4.400;2023-04-24T04:23:33;9.73;;;6.03;;
23578;SDS011;11967;50.852;4.400;2023-04-24T04:25:59;9.30;;;5.63;;
23578;SDS011;11967;50.852;4.400;2023-04-24T04:28:24;9.90;;;6.30;;
23578;SDS011;11967;50.852;4.400;2023-04-24T04:30:51;8.82;;;6.13;;
23578;SDS011;11967;50.852;4.400;2023-04-24T04:33:20;11.52;;;5.80;;
23578;SDS011;11967;50.852;4.400;2023-04-24T04:35:46;7.72;;;5.45;;
23578;SDS011;11967;50.852;4.400;2023-04-24T04:38:17;9.45;;;6.20;;
23578;SDS011;11967;50.852;4.400;2023-04-24T04:40:45;10.93;;;5.88;;
23578;SDS011;11967;50.852;4.400;2023-04-24T04:43:11;7.63;;;6.00;;
23578;SDS011;11967;50.852;4.400;2023-04-24T04:45:39;10.77;;;5.63;;
23578;SDS011;11967;50.852;4.400;2023-04-24T04:48:07;10.07;;;6.18;;
23578;SDS011;11967;50.852;4.400;2023-04-24T04:50:34;10.90;;;6.68;;
23578;SDS011;11967;50.852;4.400;2023-04-24T04:53:00;12.52;;;6.53;;
23578;SDS011;11967;50.852;4.400;2023-04-24T04:55:26;12.02;;;7.10;;
23578;SDS011;11967;50.852;4.400;2023-04-24T04:57:53;11.27;;;7.13;;
23578;SDS011;11967;50.852;4.400;2023-04-24T05:00:20;12.93;;;8.60;;
23578;SDS011;11967;50.852;4.400;2023-04-24T05:02:46;15.63;;;8.65;;
23578;SDS011;11967;50.852;4.400;2023-04-24T05:05:12;17.30;;;9.48;;
23578;SDS011;11967;50.852;4.400;2023-04-24T05:07:38;15.43;;;9.25;;
23578;SDS011;11967;50.852;4.400;2023-04-24T05:10:04;16.63;;;10.27;;
23578;SDS011;11967;50.852;4.400;2023-04-24T05:12:30;19.27;;;10.60;;
23578;SDS011;11967;50.852;4.400;2023-04-24T05:14:55;18.23;;;11.52;;
23578;SDS011;11967;50.852;4.400;2023-04-24T05:17:21;19.20;;;11.43;;
23578;SDS011;11967;50.852;4.400;2023-04-24T05:19:46;18.88;;;11.07;;
23578;SDS011;11967;50.852;4.400;2023-04-24T05:22:13;18.50;;;11.60;;
23578;SDS011;11967;50.852;4.400;2023-04-24T05:24:38;20.33;;;11.43;;
23578;SDS011;11967;50.852;4.400;2023-04-24T05:27:04;19.30;;;11.07;;
23578;SDS011;11967;50.852;4.400;2023-04-24T05:29:30;19.73;;;11.13;;
23578;SDS011;11967;50.852;4.400;2023-04-24T05:31:57;21.65;;;11.25;;
23578;SDS011;11967;50.852;4.400;2023-04-24T05:34:23;18.25;;;10.57;;
23578;SDS011;11967;50.852;4.400;2023-04-24T05:36:49;18.02;;;11.35;;
23578;SDS011;11967;50.852;4.400;2023-04-24T05:39:15;16.45;;;10.77;;
23578;SDS011;11967;50.852;4.400;2023-04-24T05:41:41;21.10;;;11.88;;
23578;SDS011;11967;50.852;4.400;2023-04-24T05:44:07;21.20;;;12.07;;
23578;SDS011;11967;50.852;4.400;2023-04-24T05:46:33;22.63;;;12.57;;
23578;SDS011;11967;50.852;4.400;2023-04-24T05:48:58;16.10;;;10.82;;
23578;SDS011;11967;50.852;4.400;2023-04-24T05:51:24;21.85;;;12.05;;
23578;SDS011;11967;50.852;4.400;2023-04-24T05:53:51;22.13;;;12.25;;
23578;SDS011;11967;50.852;4.400;2023-04-24T05:56:17;18.48;;;12.00;;
23578;SDS011;11967;50.852;4.400;2023-04-24T05:58:43;20.92;;;11.75;;
23578;SDS011;11967;50.852;4.400;2023-04-24T06:01:13;18.25;;;11.52;;
23578;SDS011;11967;50.852;4.400;2023-04-24T06:03:42;23.13;;;12.25;;
23578;SDS011;11967;50.852;4.400;2023-04-24T06:06:08;19.58;;;11.43;;
23578;SDS011;11967;50.852;4.400;2023-04-24T06:08:34;16.83;;;11.05;;
23578;SDS011;11967;50.852;4.400;2023-04-24T06:11:00;21.92;;;12.38;;
23578;SDS011;11967;50.852;4.400;2023-04-24T06:13:26;19.67;;;12.05;;
23578;SDS011;11967;50.852;4.400;2023-04-24T06:15:52;21.08;;;12.65;;
23578;SDS011;11967;50.852;4.400;2023-04-24T06:18:19;18.50;;;11.32;;
23578;SDS011;11967;50.852;4.400;2023-04-24T06:20:45;25.38;;;12.98;;
23578;SDS011;11967;50.852;4.400;2023-04-24T06:23:11;20.40;;;13.50;;
23578;SDS011;11967;50.852;4.400;2023-04-24T06:25:37;34.28;;;17.90;;
23578;SDS011;11967;50.852;4.400;2023-04-24T06:28:03;24.27;;;14.57;;
23578;SDS011;11967;50.852;4.400;2023-04-24T06:30:31;28.75;;;14.13;;
23578;SDS011;11967;50.852;4.400;2023-04-24T06:32:56;22.33;;;13.10;;
23578;SDS011;11967;50.852;4.400;2023-04-24T06:35:22;28.58;;;15.13;;
23578;SDS011;11967;50.852;4.400;2023-04-24T06:37:48;27.45;;;15.15;;
23578;SDS011;11967;50.852;4.400;2023-04-24T06:40:14;25.63;;;13.77;;
23578;SDS011;11967;50.852;4.400;2023-04-24T06:42:39;26.20;;;14.85;;
23578;SDS011;11967;50.852;4.400;2023-04-24T06:45:05;30.40;;;14.45;;
23578;SDS011;11967;50.852;4.400;2023-04-24T06:47:31;29.27;;;14.68;;
23578;SDS011;11967;50.852;4.400;2023-04-24T06:49:57;30.35;;;15.55;;
23578;SDS011;11967;50.852;4.400;2023-04-24T06:52:23;29.55;;;15.55;;
23578;SDS011;11967;50.852;4.400;2023-04-24T06:54:49;33.60;;;16.33;;
23578;SDS011;11967;50.852;4.400;2023-04-24T06:57:14;26.80;;;15.65;;
23578;SDS011;11967;50.852;4.400;2023-04-24T06:59:41;29.30;;;17.00;;
23578;SDS011;11967;50.852;4.400;2023-04-24T07:02:07;33.72;;;16.83;;
23578;SDS011;11967;50.852;4.400;2023-04-24T07:04:33;28.73;;;16.05;;
23578;SDS011;11967;50.852;4.400;2023-04-24T07:06:58;45.95;;;24.30;;
23578;SDS011;11967;50.852;4.400;2023-04-24T07:09:25;38.83;;;19.27;;
23578;SDS011;11967;50.852;4.400;2023-04-24T07:11:51;35.08;;;17.88;;
23578;SDS011;11967;50.852;4.400;2023-04-24T07:14:18;35.78;;;16.52;;
23578;SDS011;11967;50.852;4.400;2023-04-24T07:16:44;34.15;;;16.40;;
23578;SDS011;11967;50.852;4.400;2023-04-24T07:19:10;33.63;;;15.60;;
23578;SDS011;11967;50.852;4.400;2023-04-24T07:21:36;33.22;;;16.45;;
23578;SDS011;11967;50.852;4.400;2023-04-24T07:24:02;27.83;;;15.77;;
23578;SDS011;11967;50.852;4.400;2023-04-24T07:26:30;30.20;;;14.48;;
23578;SDS011;11967;50.852;4.400;2023-04-24T07:28:57;27.75;;;14.23;;
23578;SDS011;11967;50.852;4.400;2023-04-24T07:31:22;30.88;;;14.65;;
23578;SDS011;11967;50.852;4.400;2023-04-24T07:33:49;23.63;;;14.52;;
23578;SDS011;11967;50.852;4.400;2023-04-24T07:36:15;19.52;;;12.20;;
23578;SDS011;11967;50.852;4.400;2023-04-24T07:38:44;24.45;;;12.13;;
23578;SDS011;11967;50.852;4.400;2023-04-24T07:41:12;23.65;;;11.48;;
23578;SDS011;11967;50.852;4.400;2023-04-24T07:43:38;24.52;;;11.65;;
23578;SDS011;11967;50.852;4.400;2023-04-24T07:46:04;19.88;;;11.23;;
23578;SDS011;11967;50.852;4.400;2023-04-24T07:48:29;22.52;;;10.13;;
23578;SDS011;11967;50.852;4.400;2023-04-24T07:50:55;23.67;;;10.77;;
23578;SDS011;11967;50.852;4.400;2023-04-24T07:53:21;20.65;;;10.95;;
23578;SDS011;11967;50.852;4.400;2023-04-24T07:55:46;23.52;;;12.20;;
23578;SDS011;11967;50.852;4.400;2023-04-24T07:58:12;22.20;;;12.48;;
23578;SDS011;11967;50.852;4.400;2023-04-24T08:00:38;25.08;;;12.57;;
23578;SDS011;11967;50.852;4.400;2023-04-24T08:03:03;27.77;;;13.13;;
23578;SDS011;11967;50.852;4.400;2023-04-24T08:05:29;29.63;;;13.00;;
23578;SDS011;11967;50.852;4.400;2023-04-24T08:07:55;22.80;;;11.65;;
23578;SDS011;11967;50.852;4.400;2023-04-24T08:10:21;29.88;;;12.75;;
23578;SDS011;11967;50.852;4.400;2023-04-24T08:12:47;27.60;;;12.40;;
23578;SDS011;11967;50.852;4.400;2023-04-24T08:15:13;27.42;;;12.88;;
23578;SDS011;11967;50.852;4.400;2023-04-24T08:17:39;24.30;;;11.82;;
23578;SDS011;11967;50.852;4.400;2023-04-24T08:20:05;23.27;;;11.15;;
23578;SDS011;11967;50.852;4.400;2023-04-24T08:22:35;26.33;;;10.82;;
23578;SDS011;11967;50.852;4.400;2023-04-24T08:25:01;21.65;;;10.02;;
23578;SDS011;11967;50.852;4.400;2023-04-24T08:27:27;22.23;;;9.55;;
23578;SDS011;11967;50.852;4.400;2023-04-24T08:29:53;24.98;;;10.10;;
23578;SDS011;11967;50.852;4.400;2023-04-24T08:32:19;22.90;;;9.38;;
23578;SDS011;11967;50.852;4.400;2023-04-24T08:34:45;23.80;;;9.48;;
23578;SDS011;11967;50.852;4.400;2023-04-24T08:37:11;24.08;;;9.80;;
23578;SDS011;11967;50.852;4.400;2023-04-24T08:39:37;40.42;;;13.07;;
23578;SDS011;11967;50.852;4.400;2023-04-24T08:42:03;22.48;;;9.05;;
23578;SDS011;11967;50.852;4.400;2023-04-24T08:44:33;22.20;;;9.13;;
23578;SDS011;11967;50.852;4.400;2023-04-24T08:47:00;26.75;;;8.70;;
23578;SDS011;11967;50.852;4.400;2023-04-24T08:49:27;25.58;;;8.45;;
23578;SDS011;11967;50.852;4.400;2023-04-24T08:51:54;20.98;;;8.75;;
23578;SDS011;11967;50.852;4.400;2023-04-24T08:54:20;16.80;;;7.72;;
23578;SDS011;11967;50.852;4.400;2023-04-24T08:56:47;24.15;;;7.60;;
23578;SDS011;11967;50.852;4.400;2023-04-24T08:59:14;25.08;;;7.85;;
23578;SDS011;11967;50.852;4.400;2023-04-24T09:01:40;19.88;;;7.53;;
23578;SDS011;11967;50.852;4.400;2023-04-24T09:04:07;19.35;;;7.57;;
23578;SDS011;11967;50.852;4.400;2023-04-24T09:06:38;22.90;;;7.40;;
23578;SDS011;11967;50.852;4.400;2023-04-24T09:09:04;23.98;;;6.60;;
23578;SDS011;11967;50.852;4.400;2023-04-24T09:11:30;17.92;;;6.13;;
23578;SDS011;11967;50.852;4.400;2023-04-24T09:13:57;13.18;;;5.80;;
23578;SDS011;11967;50.852;4.400;2023-04-24T09:16:24;14.70;;;6.55;;
23578;SDS011;11967;50.852;4.400;2023-04-24T09:18:51;15.30;;;6.28;;
23578;SDS011;11967;50.852;4.400;2023-04-24T09:21:18;19.55;;;6.55;;
23578;SDS011;11967;50.852;4.400;2023-04-24T09:23:46;12.73;;;6.28;;
23578;SDS011;11967;50.852;4.400;2023-04-24T09:26:11;15.38;;;6.00;;
23578;SDS011;11967;50.852;4.400;2023-04-24T09:28:39;12.30;;;5.28;;
23578;SDS011;11967;50.852;4.400;2023-04-24T09:33:36;16.08;;;5.78;;
23578;SDS011;11967;50.852;4.400;2023-04-24T09:36:02;15.43;;;6.07;;
23578;SDS011;11967;50.852;4.400;2023-04-24T09:38:35;18.67;;;6.82;;
23578;SDS011;11967;50.852;4.400;2023-04-24T09:43:29;12.93;;;5.70;;
23578;SDS011;11967;50.852;4.400;2023-04-24T09:45:57;17.55;;;5.65;;
23578;SDS011;11967;50.852;4.400;2023-04-24T09:48:30;12.85;;;5.18;;
23578;SDS011;11967;50.852;4.400;2023-04-24T09:51:01;13.23;;;5.47;;
23578;SDS011;11967;50.852;4.400;2023-04-24T09:53:28;12.77;;;5.22;;
23578;SDS011;11967;50.852;4.400;2023-04-24T09:55:55;14.40;;;5.50;;
23578;SDS011;11967;50.852;4.400;2023-04-24T09:58:24;29.92;;;14.90;;
23578;SDS011;11967;50.852;4.400;2023-04-24T10:00:53;27.70;;;11.40;;
23578;SDS011;11967;50.852;4.400;2023-04-24T10:03:20;16.30;;;5.60;;
23578;SDS011;11967;50.852;4.400;2023-04-24T10:05:48;18.20;;;5.85;;
23578;SDS011;11967;50.852;4.400;2023-04-24T10:08:16;14.13;;;5.35;;
23578;SDS011;11967;50.852;4.400;2023-04-24T10:10:42;16.48;;;5.05;;
23578;SDS011;11967;50.852;4.400;2023-04-24T10:13:10;16.23;;;5.38;;
23578;SDS011;11967;50.852;4.400;2023-04-24T10:15:37;11.18;;;5.20;;
23578;SDS011;11967;50.852;4.400;2023-04-24T10:18:04;10.95;;;5.45;;
23578;SDS011;11967;50.852;4.400;2023-04-24T10:20:31;12.63;;;5.00;;
23578;SDS011;11967;50.852;4.400;2023-04-24T10:22:58;14.52;;;5.35;;
23578;SDS011;11967;50.852;4.400;2023-04-24T10:25:34;11.93;;;5.28;;
23578;SDS011;11967;50.852;4.400;2023-04-24T10:28:02;15.40;;;5.57;;
23578;SDS011;11967;50.852;4.400;2023-04-24T10:30:29;86.00;;;38.95;;
23578;SDS011;11967;50.852;4.400;2023-04-24T10:33:04;18.50;;;7.05;;
23578;SDS011;11967;50.852;4.400;2023-04-24T10:35:34;12.60;;;5.53;;
23578;SDS011;11967;50.852;4.400;2023-04-24T10:38:12;17.52;;;5.85;;
23578;SDS011;11967;50.852;4.400;2023-04-24T10:40:39;15.35;;;6.35;;
23578;SDS011;11967;50.852;4.400;2023-04-24T10:43:05;11.85;;;5.68;;
23578;SDS011;11967;50.852;4.400;2023-04-24T10:45:36;10.63;;;5.90;;
23578;SDS011;11967;50.852;4.400;2023-04-24T10:48:04;15.13;;;5.88;;
23578;SDS011;11967;50.852;4.400;2023-04-24T10:50:46;14.88;;;5.95;;
23578;SDS011;11967;50.852;4.400;2023-04-24T10:53:14;13.85;;;5.78;;
23578;SDS011;11967;50.852;4.400;2023-04-24T10:55:42;21.92;;;7.07;;
23578;SDS011;11967;50.852;4.400;2023-04-24T10:58:09;14.60;;;6.00;;
23578;SDS011;11967;50.852;4.400;2023-04-24T11:00:39;14.00;;;6.00;;
23578;SDS011;11967;50.852;4.400;2023-04-24T11:03:06;14.05;;;6.28;;
23578;SDS011;11967;50.852;4.400;2023-04-24T11:05:55;22.55;;;7.13;;
23578;SDS011;11967;50.852;4.400;2023-04-24T11:08:52;20.67;;;8.95;;
23578;SDS011;11967;50.852;4.400;2023-04-24T11:11:30;16.42;;;6.38;;
23578;SDS011;11967;50.852;4.400;2023-04-24T11:18:51;12.20;;;6.10;;
23578;SDS011;11967;50.852;4.400;2023-04-24T11:21:24;16.60;;;6.97;;
23578;SDS011;11967;50.852;4.400;2023-04-24T11:23:51;14.32;;;6.40;;
23578;SDS011;11967;50.852;4.400;2023-04-24T11:26:23;11.27;;;6.35;;
23578;SDS011;11967;50.852;4.400;2023-04-24T11:28:55;13.60;;;5.88;;
23578;SDS011;11967;50.852;4.400;2023-04-24T11:31:39;13.77;;;6.45;;
23578;SDS011;11967;50.852;4.400;2023-04-24T11:34:10;33.22;;;15.20;;
23578;SDS011;11967;50.852;4.400;2023-04-24T11:36:38;35.40;;;16.52;;
23578;SDS011;11967;50.852;4.400;2023-04-24T11:39:06;11.23;;;5.88;;
23578;SDS011;11967;50.852;4.400;2023-04-24T11:41:33;12.15;;;6.22;;
23578;SDS011;11967;50.852;4.400;2023-04-24T11:43:59;11.57;;;5.88;;
23578;SDS011;11967;50.852;4.400;2023-04-24T11:46:29;10.27;;;5.88;;
23578;SDS011;11967;50.852;4.400;2023-04-24T11:48:56;13.77;;;6.55;;
23578;SDS011;11967;50.852;4.400;2023-04-24T11:51:24;13.40;;;6.55;;
23578;SDS011;11967;50.852;4.400;2023-04-24T11:53:51;15.55;;;7.18;;
23578;SDS011;11967;50.852;4.400;2023-04-24T11:56:18;11.50;;;6.47;;
23578;SDS011;11967;50.852;4.400;2023-04-24T11:58:44;15.80;;;8.40;;
23578;SDS011;11967;50.852;4.400;2023-04-24T12:01:11;18.67;;;7.13;;
23578;SDS011;11967;50.852;4.400;2023-04-24T12:03:37;14.52;;;6.90;;
23578;SDS011;11967;50.852;4.400;2023-04-24T12:06:06;14.15;;;6.30;;
23578;SDS011;11967;50.852;4.400;2023-04-24T12:08:33;12.05;;;6.30;;
23578;SDS011;11967;50.852;4.400;2023-04-24T12:11:03;14.80;;;6.28;;
23578;SDS011;11967;50.852;4.400;2023-04-24T12:13:29;16.45;;;6.63;;
23578;SDS011;11967;50.852;4.400;2023-04-24T12:15:59;15.50;;;8.00;;
23578;SDS011;11967;50.852;4.400;2023-04-24T12:18:27;14.55;;;7.07;;
23578;SDS011;11967;50.852;4.400;2023-04-24T12:20:53;13.85;;;6.82;;
23578;SDS011;11967;50.852;4.400;2023-04-24T12:23:35;11.50;;;6.38;;
23578;SDS011;11967;50.852;4.400;2023-04-24T12:26:03;10.60;;;6.65;;
23578;SDS011;11967;50.852;4.400;2023-04-24T12:28:36;15.15;;;7.18;;
23578;SDS011;11967;50.852;4.400;2023-04-24T12:31:03;13.68;;;6.72;;
23578;SDS011;11967;50.852;4.400;2023-04-24T12:33:32;16.35;;;6.40;;
23578;SDS011;11967;50.852;4.400;2023-04-24T12:35:59;13.63;;;5.82;;
23578;SDS011;11967;50.852;4.400;2023-04-24T12:38:26;12.23;;;5.82;;
23578;SDS011;11967;50.852;4.400;2023-04-24T12:43:29;10.77;;;6.03;;
23578;SDS011;11967;50.852;4.400;2023-04-24T12:45:54;8.73;;;5.55;;
23578;SDS011;11967;50.852;4.400;2023-04-24T12:48:20;9.68;;;5.35;;
23578;SDS011;11967;50.852;4.400;2023-04-24T12:50:47;8.57;;;4.78;;
23578;SDS011;11967;50.852;4.400;2023-04-24T12:53:13;10.68;;;5.45;;
23578;SDS011;11967;50.852;4.400;2023-04-24T12:55:40;11.63;;;4.90;;
23578;SDS011;11967;50.852;4.400;2023-04-24T12:58:05;8.10;;;5.15;;
23578;SDS011;11967;50.852;4.400;2023-04-24T13:00:31;12.93;;;4.95;;
23578;SDS011;11967;50.852;4.400;2023-04-24T13:02:57;8.80;;;5.15;;
23578;SDS011;11967;50.852;4.400;2023-04-24T13:05:23;11.57;;;5.28;;
23578;SDS011;11967;50.852;4.400;2023-04-24T13:07:48;11.77;;;5.00;;
23578;SDS011;11967;50.852;4.400;2023-04-24T13:10:14;7.72;;;4.70;;
23578;SDS011;11967;50.852;4.400;2023-04-24T13:12:40;8.65;;;4.80;;
23578;SDS011;11967;50.852;4.400;2023-04-24T13:15:06;11.68;;;4.50;;
23578;SDS011;11967;50.852;4.400;2023-04-24T13:17:32;8.50;;;4.57;;
23578;SDS011;11967;50.852;4.400;2023-04-24T13:19:58;9.10;;;4.70;;
23578;SDS011;11967;50.852;4.400;2023-04-24T13:22:24;11.05;;;4.57;;
23578;SDS011;11967;50.852;4.400;2023-04-24T13:24:50;10.73;;;5.00;;
23578;SDS011;11967;50.852;4.400;2023-04-24T13:27:16;11.27;;;4.18;;
23578;SDS011;11967;50.852;4.400;2023-04-24T13:29:42;10.18;;;4.18;;
23578;SDS011;11967;50.852;4.400;2023-04-24T13:32:08;9.38;;;3.72;;
23578;SDS011;11967;50.852;4.400;2023-04-24T13:34:34;11.13;;;4.28;;
23578;SDS011;11967;50.852;4.400;2023-04-24T13:37:00;11.85;;;4.72;;
23578;SDS011;11967;50.852;4.400;2023-04-24T13:39:27;15.95;;;4.43;;
23578;SDS011;11967;50.852;4.400;2023-04-24T13:41:53;12.10;;;4.07;;
23578;SDS011;11967;50.852;4.400;2023-04-24T13:44:19;12.00;;;3.47;;
23578;SDS011;11967;50.852;4.400;2023-04-24T13:46:46;8.25;;;3.45;;
23578;SDS011;11967;50.852;4.400;2023-04-24T13:49:13;7.63;;;3.60;;
23578;SDS011;11967;50.852;4.400;2023-04-24T13:51:40;7.47;;;3.83;;
23578;SDS011;11967;50.852;4.400;2023-04-24T13:54:07;14.55;;;3.97;;
23578;SDS011;11967;50.852;4.400;2023-04-24T13:56:32;12.85;;;3.72;;
23578;SDS011;11967;50.852;4.400;2023-04-24T13:58:59;11.07;;;3.78;;
23578;SDS011;11967;50.852;4.400;2023-04-24T14:01:25;10.40;;;4.22;;
23578;SDS011;11967;50.852;4.400;2023-04-24T14:03:52;10.07;;;4.03;;
23578;SDS011;11967;50.852;4.400;2023-04-24T14:06:18;9.18;;;3.72;;
23578;SDS011;11967;50.852;4.400;2023-04-24T14:08:45;10.50;;;3.30;;
23578;SDS011;11967;50.852;4.400;2023-04-24T14:11:11;7.97;;;3.53;;
23578;SDS011;11967;50.852;4.400;2023-04-24T14:13:37;8.05;;;3.17;;
23578;SDS011;11967;50.852;4.400;2023-04-24T14:16:03;8.02;;;3.15;;
23578;SDS011;11967;50.852;4.400;2023-04-24T14:18:29;7.22;;;2.80;;
23578;SDS011;11967;50.852;4.400;2023-04-24T14:20:55;6.45;;;2.80;;
23578;SDS011;11967;50.852;4.400;2023-04-24T14:23:20;6.57;;;2.78;;
23578;SDS011;11967;50.852;4.400;2023-04-24T14:25:46;6.10;;;2.45;;
23578;SDS011;11967;50.852;4.400;2023-04-24T14:28:17;9.60;;;3.38;;
23578;SDS011;11967;50.852;4.400;2023-04-24T14:30:43;7.60;;;2.90;;
23578;SDS011;11967;50.852;4.400;2023-04-24T14:33:09;13.25;;;3.97;;
23578;SDS011;11967;50.852;4.400;2023-04-24T14:35:35;16.50;;;3.75;;
23578;SDS011;11967;50.852;4.400;2023-04-24T14:38:01;12.85;;;2.90;;